createdAt,value
2019-05-21T00:00:10.547Z,22.40
2019-05-21T00:02:38.952Z,24.93
2019-05-21T00:05:07.419Z,22.30
2019-05-21T00:07:35.375Z,28.27
2019-05-21T00:10:03.939Z,24.80
2019-05-21T00:12:31.867Z,22.07
2019-05-21T00:15:00.101Z,16.53
2019-05-21T00:17:28.092Z,18.27
2019-05-21T00:19:56.375Z,19.03
2019-05-21T00:22:24.244Z,20.77
2019-05-21T00:24:52.329Z,20.17
2019-05-21T00:27:20.355Z,16.73
2019-05-21T00:30:24.176Z,17.67
2019-05-21T00:33:28.318Z,17.63
2019-05-21T00:36:33.511Z,18.70
2019-05-21T00:39:37.585Z,18.00
2019-05-21T00:42:05.056Z,19.57
2019-05-21T00:44:41.251Z,20.07
2019-05-21T00:47:11.319Z,19.90
2019-05-21T00:49:39.544Z,20.03
2019-05-21T00:52:09.135Z,20.53
2019-05-21T00:54:37.574Z,18.27
2019-05-21T00:57:06.052Z,17.93
2019-05-21T00:59:34.357Z,18.10
2019-05-21T01:02:03.030Z,18.60
2019-05-21T01:04:31.275Z,19.47
2019-05-21T01:06:59.471Z,19.87
2019-05-21T01:09:27.642Z,20.20
2019-05-21T01:11:55.860Z,19.73
2019-05-21T01:14:24.080Z,21.07
2019-05-21T01:16:51.914Z,21.37
2019-05-21T01:19:19.744Z,22.23
2019-05-21T01:21:47.616Z,21.73
2019-05-21T01:24:15.828Z,20.60
2019-05-21T01:26:43.973Z,20.97
2019-05-21T01:29:12.481Z,21.10
2019-05-21T01:31:40.346Z,16.30
2019-05-21T01:34:11.315Z,22.60
2019-05-21T01:36:37.872Z,21.60
2019-05-21T01:39:05.909Z,18.87
2019-05-21T01:41:34.225Z,20.47
2019-05-21T01:44:02.735Z,19.93
2019-05-21T01:46:31.741Z,19.00
2019-05-21T01:48:59.596Z,18.40
2019-05-21T01:51:27.745Z,15.63
2019-05-21T01:53:55.615Z,17.50
2019-05-21T01:56:23.428Z,18.87
2019-05-21T01:58:51.429Z,20.07
2019-05-21T02:01:19.843Z,19.67
2019-05-21T02:03:48.162Z,21.10
2019-05-21T02:06:16.575Z,20.60
2019-05-21T02:08:45.610Z,21.13
2019-05-21T02:11:13.541Z,21.87
2019-05-21T02:13:41.588Z,22.07
2019-05-21T02:16:09.625Z,21.40
2019-05-21T02:18:37.679Z,20.70
2019-05-21T02:21:05.570Z,22.30
2019-05-21T02:23:33.484Z,20.90
2019-05-21T02:26:01.728Z,23.10
2019-05-21T02:28:29.629Z,24.47
2019-05-21T02:30:57.557Z,22.20
2019-05-21T02:33:25.506Z,24.27
2019-05-21T02:35:54.884Z,21.23
2019-05-21T02:38:23.100Z,23.03
2019-05-21T02:40:51.005Z,22.43
2019-05-21T02:43:18.862Z,20.30
2019-05-21T02:45:46.762Z,18.73
2019-05-21T02:48:14.968Z,16.63
2019-05-21T02:50:42.858Z,19.73
2019-05-21T02:53:11.120Z,21.27
2019-05-21T02:55:38.977Z,18.90
2019-05-21T02:58:07.667Z,19.40
2019-05-21T03:00:51.560Z,21.20
2019-05-21T03:03:20.882Z,20.43
2019-05-21T03:05:48.706Z,16.30
2019-05-21T03:08:16.644Z,22.23
2019-05-21T03:10:44.912Z,22.50
2019-05-21T03:13:12.941Z,22.97
2019-05-21T03:15:40.783Z,22.77
2019-05-21T03:18:09.284Z,22.57
2019-05-21T03:20:37.488Z,23.90
2019-05-21T03:23:05.757Z,23.43
2019-05-21T03:25:33.644Z,24.80
2019-05-21T03:28:02.098Z,23.40
2019-05-21T03:30:30.043Z,22.07
2019-05-21T03:32:57.896Z,20.00
2019-05-21T03:35:25.908Z,15.47
2019-05-21T03:37:54.159Z,21.23
2019-05-21T03:40:22.096Z,17.23
2019-05-21T03:42:50.336Z,18.33
2019-05-21T03:45:18.599Z,23.45
2019-05-21T03:47:46.494Z,19.10
2019-05-21T03:50:14.747Z,17.70
2019-05-21T03:52:42.671Z,16.43
2019-05-21T03:55:10.705Z,19.17
2019-05-21T03:57:38.672Z,19.97
2019-05-21T04:00:07.380Z,20.43
2019-05-21T04:02:35.679Z,21.40
2019-05-21T04:05:04.713Z,23.20
2019-05-21T04:07:32.591Z,23.13
2019-05-21T04:10:00.647Z,25.00
2019-05-21T04:12:29.227Z,24.60
2019-05-21T04:15:01.491Z,23.30
2019-05-21T04:17:48.217Z,21.83
2019-05-21T04:20:16.066Z,20.40
2019-05-21T04:22:53.198Z,20.30
2019-05-21T04:25:22.812Z,21.07
2019-05-21T04:27:51.513Z,21.57
2019-05-21T04:30:19.813Z,25.88
2019-05-21T04:32:48.132Z,21.77
2019-05-21T04:35:16.602Z,21.53
2019-05-21T04:37:45.161Z,20.33
2019-05-21T04:40:13.290Z,20.00
2019-05-21T04:42:41.328Z,21.40
2019-05-21T04:45:10.421Z,22.07
2019-05-21T04:47:40.319Z,18.80
2019-05-21T04:50:08.807Z,18.73
2019-05-21T04:52:37.091Z,20.60
2019-05-21T04:55:05.416Z,19.53
2019-05-21T04:57:37.175Z,18.20
2019-05-21T05:00:03.967Z,18.97
2019-05-21T05:02:32.034Z,18.53
2019-05-21T05:05:00.146Z,19.30
2019-05-21T05:07:29.058Z,16.67
2019-05-21T05:09:57.130Z,19.97
2019-05-21T05:12:25.214Z,16.60
2019-05-21T05:14:53.418Z,19.90
2019-05-21T05:17:21.948Z,19.67
2019-05-21T05:19:50.429Z,19.23
2019-05-21T05:22:18.526Z,20.37
2019-05-21T05:24:46.567Z,19.67
2019-05-21T05:27:14.991Z,18.33
2019-05-21T05:29:43.820Z,17.00
2019-05-21T05:32:11.982Z,17.97
2019-05-21T05:34:40.061Z,19.17
2019-05-21T05:37:08.687Z,18.43
2019-05-21T05:39:36.891Z,17.60
2019-05-21T05:42:04.990Z,18.40
2019-05-21T05:44:33.254Z,15.40
2019-05-21T05:47:01.455Z,19.63
2019-05-21T05:49:34.626Z,15.40
2019-05-21T05:52:02.921Z,13.30
2019-05-21T05:54:31.774Z,11.60
2019-05-21T05:56:59.993Z,15.07
2019-05-21T05:59:28.121Z,16.83
2019-05-21T06:01:56.621Z,15.50
2019-05-21T06:04:24.657Z,17.17
2019-05-21T06:06:52.574Z,17.07
2019-05-21T06:09:20.475Z,16.53
2019-05-21T06:11:49.164Z,18.07
2019-05-21T06:14:17.453Z,15.53
2019-05-21T06:16:46.179Z,16.53
2019-05-21T06:19:14.500Z,16.93
2019-05-21T06:21:42.788Z,18.73
2019-05-21T06:24:13.504Z,17.97
2019-05-21T06:26:40.886Z,18.57
2019-05-21T06:29:09.245Z,18.00
2019-05-21T06:31:40.723Z,19.10
2019-05-21T06:34:08.620Z,19.83
2019-05-21T06:36:38.187Z,17.40
2019-05-21T06:39:07.397Z,14.83
2019-05-21T06:41:35.433Z,13.80
2019-05-21T06:44:03.709Z,14.03
2019-05-21T06:46:32.135Z,12.80
2019-05-21T06:49:00.447Z,12.40
2019-05-21T06:51:28.998Z,12.83
2019-05-21T06:53:57.334Z,13.93
2019-05-21T06:56:25.381Z,15.13
2019-05-21T06:58:53.936Z,15.60
2019-05-21T07:01:28.226Z,15.93
2019-05-21T07:03:52.353Z,17.70
2019-05-21T07:06:20.322Z,17.23
2019-05-21T07:08:48.957Z,16.37
2019-05-21T07:11:17.047Z,15.23
2019-05-21T07:13:45.483Z,13.90
2019-05-21T07:16:13.844Z,11.40
2019-05-21T07:18:41.959Z,11.00
2019-05-21T07:21:09.932Z,9.97
2019-05-21T07:23:38.364Z,7.93
2019-05-21T07:26:06.542Z,7.70
2019-05-21T07:28:34.709Z,6.80
2019-05-21T07:31:02.766Z,11.45
2019-05-21T07:33:32.407Z,7.37
2019-05-21T07:36:00.552Z,8.40
2019-05-21T07:38:29.003Z,8.23
2019-05-21T07:40:57.199Z,6.90
2019-05-21T07:43:25.581Z,7.80
2019-05-21T07:45:53.596Z,5.63
2019-05-21T07:48:21.926Z,7.93
2019-05-21T07:50:50.141Z,7.87
2019-05-21T07:53:18.159Z,8.43
2019-05-21T07:55:46.885Z,8.13
2019-05-21T07:58:14.973Z,8.93
2019-05-21T08:00:43.563Z,8.50
2019-05-21T08:03:12.515Z,7.70
2019-05-21T08:05:40.537Z,9.20
2019-05-21T08:08:09.063Z,7.20
2019-05-21T08:10:37.288Z,8.23
2019-05-21T08:13:08.190Z,7.83
2019-05-21T08:15:36.498Z,8.15
2019-05-21T08:18:04.784Z,6.37
2019-05-21T08:20:33.618Z,6.83
2019-05-21T08:23:01.711Z,6.63
2019-05-21T08:25:29.657Z,5.70
2019-05-21T08:27:57.885Z,6.50
2019-05-21T08:30:26.033Z,7.07
2019-05-21T08:32:54.741Z,6.23
2019-05-21T08:35:22.985Z,7.60
2019-05-21T08:37:51.665Z,5.90
2019-05-21T08:40:20.133Z,4.90
2019-05-21T08:42:48.319Z,5.43
2019-05-21T08:45:17.058Z,6.10
2019-05-21T08:47:46.283Z,5.83
2019-05-21T08:50:16.054Z,6.93
2019-05-21T08:52:44.837Z,7.23
2019-05-21T08:55:15.469Z,6.13
2019-05-21T08:57:43.646Z,6.53
2019-05-21T09:00:13.544Z,5.93
2019-05-21T09:02:41.680Z,7.87
2019-05-21T09:05:10.072Z,7.23
2019-05-21T09:07:38.136Z,7.27
2019-05-21T09:10:06.918Z,6.67
2019-05-21T09:12:35.121Z,6.47
2019-05-21T09:15:03.299Z,5.97
2019-05-21T09:17:32.848Z,6.17
2019-05-21T09:20:03.552Z,5.50
2019-05-21T09:22:33.935Z,4.23
2019-05-21T09:25:03.570Z,5.67
2019-05-21T09:27:32.548Z,6.60
2019-05-21T09:30:00.961Z,5.03
2019-05-21T09:32:29.682Z,7.57
2019-05-21T09:35:02.029Z,5.30
2019-05-21T09:37:32.220Z,5.53
2019-05-21T09:40:00.535Z,5.37
2019-05-21T09:42:28.960Z,5.93
2019-05-21T09:44:57.054Z,5.73
2019-05-21T09:47:26.289Z,7.78
2019-05-21T09:49:54.354Z,6.97
2019-05-21T09:52:22.388Z,4.60
2019-05-21T09:54:50.579Z,4.97
2019-05-21T09:57:24.925Z,5.40
2019-05-21T09:59:59.565Z,5.07
2019-05-21T10:02:29.511Z,4.47
2019-05-21T10:04:58.573Z,6.07
2019-05-21T10:07:38.889Z,4.53
2019-05-21T10:09:57.630Z,4.57
2019-05-21T10:12:25.786Z,5.57
2019-05-21T10:14:54.366Z,5.43
2019-05-21T10:17:24.279Z,4.93
2019-05-21T10:19:52.287Z,4.50
2019-05-21T10:22:20.219Z,2.87
2019-05-21T10:24:48.316Z,6.13
2019-05-21T10:27:17.394Z,4.20
2019-05-21T10:29:45.555Z,3.73
2019-05-21T10:32:13.896Z,4.50
2019-05-21T10:34:41.924Z,4.87
2019-05-21T10:37:09.994Z,3.53
2019-05-21T10:39:38.037Z,4.13
2019-05-21T10:42:06.156Z,4.53
2019-05-21T10:44:34.342Z,5.17
2019-05-21T10:47:04.424Z,5.25
2019-05-21T10:49:32.899Z,5.47
2019-05-21T10:52:01.198Z,4.80
2019-05-21T10:54:31.929Z,5.53
2019-05-21T10:57:00.433Z,5.57
2019-05-21T10:59:28.843Z,4.73
2019-05-21T11:02:25.365Z,5.03
2019-05-21T11:04:57.603Z,4.13
2019-05-21T11:07:26.070Z,4.30
2019-05-21T11:09:54.056Z,4.57
2019-05-21T11:12:22.358Z,4.80
2019-05-21T11:14:50.821Z,3.90
2019-05-21T11:17:21.072Z,3.60
2019-05-21T11:19:49.196Z,3.63
2019-05-21T11:22:17.710Z,4.33
2019-05-21T11:24:46.138Z,5.08
2019-05-21T11:27:14.374Z,4.30
2019-05-21T11:29:42.856Z,4.50
2019-05-21T11:32:11.372Z,4.43
2019-05-21T11:34:39.676Z,5.10
2019-05-21T11:37:07.884Z,5.00
2019-05-21T11:39:36.356Z,3.95
2019-05-21T11:42:04.674Z,5.20
2019-05-21T11:44:32.667Z,5.23
2019-05-21T11:47:01.296Z,5.28
2019-05-21T11:49:30.120Z,5.77
2019-05-21T11:51:59.035Z,5.37
2019-05-21T11:54:30.806Z,4.60
2019-05-21T11:56:59.309Z,4.28
2019-05-21T11:59:29.153Z,4.25
2019-05-21T12:01:58.420Z,4.80
2019-05-21T12:04:30.472Z,4.50
2019-05-21T12:07:03.417Z,4.65
2019-05-21T12:09:32.874Z,5.75
2019-05-21T12:12:03.335Z,4.40
2019-05-21T12:14:31.494Z,5.50
2019-05-21T12:17:00.927Z,5.83
2019-05-21T12:19:30.147Z,6.35
2019-05-21T12:21:59.569Z,5.57
2019-05-21T12:24:28.137Z,6.93
2019-05-21T12:26:56.805Z,6.10
2019-05-21T12:29:25.147Z,5.13
2019-05-21T12:31:53.690Z,6.20
2019-05-21T12:34:22.990Z,6.23
2019-05-21T12:36:51.790Z,7.27
2019-05-21T12:39:20.905Z,5.62
2019-05-21T12:41:49.451Z,6.00
2019-05-21T12:44:18.183Z,7.03
2019-05-21T12:46:47.150Z,8.43
2019-05-21T12:49:16.230Z,5.90
2019-05-21T12:51:44.350Z,4.90
2019-05-21T12:54:12.316Z,5.80
2019-05-21T12:56:41.404Z,4.78
2019-05-21T12:59:09.853Z,6.00
2019-05-21T13:01:38.057Z,5.70
2019-05-21T13:04:06.215Z,6.03
2019-05-21T13:06:34.545Z,5.42
2019-05-21T13:09:07.758Z,5.40
2019-05-21T13:11:35.695Z,6.90
2019-05-21T13:14:04.289Z,6.00
2019-05-21T13:16:32.150Z,5.50
2019-05-21T13:19:04.257Z,5.72
2019-05-21T13:21:35.208Z,5.65
2019-05-21T13:24:15.047Z,5.95
2019-05-21T13:26:45.989Z,7.20
2019-05-21T13:32:49.082Z,5.20
2019-05-21T13:35:17.599Z,6.35
2019-05-21T13:37:45.738Z,5.80
2019-05-21T13:40:19.602Z,4.78
2019-05-21T13:42:48.064Z,5.87
2019-05-21T13:45:18.273Z,9.90
2019-05-21T13:47:48.979Z,7.17
2019-05-21T13:50:17.134Z,9.53
2019-05-21T13:52:45.632Z,6.47
2019-05-21T13:55:14.229Z,7.20
2019-05-21T13:57:43.573Z,7.70
2019-05-21T14:00:15.397Z,7.53
2019-05-21T14:02:43.526Z,7.03
2019-05-21T14:05:12.174Z,7.47
2019-05-21T14:07:40.589Z,7.60
2019-05-21T14:10:17.103Z,8.23
2019-05-21T14:12:40.012Z,7.87
2019-05-21T14:15:08.916Z,7.23
2019-05-21T14:17:37.185Z,6.05
2019-05-21T14:20:07.366Z,5.62
2019-05-21T14:22:37.719Z,8.98
2019-05-21T14:25:06.840Z,7.08
2019-05-21T14:27:44.462Z,7.45
2019-05-21T14:30:05.611Z,5.17
2019-05-21T14:32:33.584Z,6.03
2019-05-21T14:35:02.652Z,6.15
2019-05-21T14:37:30.672Z,6.47
2019-05-21T14:39:59.223Z,5.23
2019-05-21T14:42:27.513Z,6.25
2019-05-21T14:44:55.592Z,6.30
2019-05-21T14:47:24.031Z,5.73
2019-05-21T14:49:52.218Z,6.90
2019-05-21T14:52:20.755Z,7.55
2019-05-21T14:54:48.906Z,7.90
2019-05-21T14:57:16.954Z,8.85
2019-05-21T14:59:44.906Z,7.53
2019-05-21T15:02:17.651Z,7.83
2019-05-21T15:04:45.975Z,9.18
2019-05-21T15:07:14.052Z,10.30
2019-05-21T15:09:42.214Z,8.70
2019-05-21T15:12:10.306Z,8.53
2019-05-21T15:14:39.733Z,9.63
2019-05-21T15:17:08.083Z,9.88
2019-05-21T15:19:36.603Z,9.90
2019-05-21T15:22:04.786Z,9.60
2019-05-21T15:24:33.736Z,9.90
2019-05-21T15:27:01.996Z,9.75
2019-05-21T15:29:29.958Z,10.50
2019-05-21T15:31:58.606Z,9.08
2019-05-21T15:34:26.848Z,10.75
2019-05-21T15:36:55.219Z,13.25
2019-05-21T15:39:23.456Z,16.17
2019-05-21T15:41:52.259Z,16.55
2019-05-21T15:44:20.573Z,14.00
2019-05-21T15:46:50.656Z,15.17
2019-05-21T15:49:33.338Z,17.20
2019-05-21T15:51:48.982Z,16.15
2019-05-21T15:54:17.152Z,16.48
2019-05-21T15:56:45.365Z,15.30
2019-05-21T15:59:13.824Z,16.25
2019-05-21T16:01:42.279Z,16.10
2019-05-21T16:04:11.224Z,17.07
2019-05-21T16:06:39.526Z,17.85
2019-05-21T16:09:08.744Z,18.25
2019-05-21T16:11:37.209Z,16.30
2019-05-21T16:14:06.173Z,16.37
2019-05-21T16:16:34.485Z,17.98
2019-05-21T16:19:02.931Z,14.68
2019-05-21T16:21:31.519Z,15.58
2019-05-21T16:23:59.619Z,17.40
2019-05-21T16:26:27.656Z,14.73
2019-05-21T16:28:56.291Z,15.25
2019-05-21T16:31:24.371Z,12.95
2019-05-21T16:33:52.678Z,14.83
2019-05-21T16:36:21.181Z,14.05
2019-05-21T16:38:49.071Z,14.00
2019-05-21T16:41:17.025Z,15.53
2019-05-21T16:43:44.965Z,16.77
2019-05-21T16:46:12.941Z,15.85
2019-05-21T16:48:41.872Z,16.20
2019-05-21T16:51:10.851Z,19.02
2019-05-21T16:53:38.985Z,19.62
2019-05-21T16:56:08.616Z,20.80
2019-05-21T16:58:36.897Z,21.30
2019-05-21T17:01:06.999Z,22.30
2019-05-21T17:03:36.594Z,18.17
2019-05-21T17:06:04.792Z,20.77
2019-05-21T17:08:33.928Z,17.67
2019-05-21T17:11:02.217Z,21.40
2019-05-21T17:13:30.166Z,19.37
2019-05-21T17:15:58.229Z,20.10
2019-05-21T17:18:27.527Z,21.37
2019-05-21T17:20:56.002Z,18.77
2019-05-21T17:23:24.585Z,17.47
2019-05-21T17:25:52.547Z,21.25
2019-05-21T17:28:21.334Z,19.17
2019-05-21T17:30:49.859Z,18.17
2019-05-21T17:33:18.840Z,20.30
2019-05-21T17:35:47.324Z,20.10
2019-05-21T17:38:16.064Z,21.65
2019-05-21T17:40:44.372Z,21.80
2019-05-21T17:43:12.747Z,20.00
2019-05-21T17:45:42.355Z,19.47
2019-05-21T17:48:11.358Z,25.70
2019-05-21T17:50:39.894Z,23.23
2019-05-21T17:53:08.980Z,21.97
2019-05-21T17:55:37.050Z,21.50
2019-05-21T17:58:05.198Z,18.83
2019-05-21T18:00:51.071Z,20.30
2019-05-21T18:03:19.279Z,19.83
2019-05-21T18:05:48.240Z,21.20
2019-05-21T18:08:17.303Z,21.50
2019-05-21T18:10:46.254Z,22.87
2019-05-21T18:13:15.912Z,21.10
2019-05-21T18:15:44.936Z,21.43
2019-05-21T18:18:12.973Z,19.20
2019-05-21T18:20:41.621Z,20.43
2019-05-21T18:23:10.510Z,18.80
2019-05-21T18:25:38.554Z,19.37
2019-05-21T18:28:06.862Z,19.73
2019-05-21T18:30:34.932Z,18.50
2019-05-21T18:33:03.441Z,19.57
2019-05-21T18:35:32.574Z,19.77
2019-05-21T18:38:00.636Z,18.60
2019-05-21T18:40:29.270Z,19.03
2019-05-21T18:42:57.352Z,17.47
2019-05-21T18:45:25.539Z,20.13
2019-05-21T18:47:53.779Z,20.10
2019-05-21T18:50:34.734Z,18.87
2019-05-21T18:52:52.857Z,17.43
2019-05-21T18:55:20.874Z,17.87
2019-05-21T18:57:49.363Z,17.90
2019-05-21T19:00:17.852Z,16.37
2019-05-21T19:02:46.533Z,17.63
2019-05-21T19:05:14.716Z,18.73
2019-05-21T19:07:43.084Z,21.73
2019-05-21T19:10:11.519Z,17.03
2019-05-21T19:12:40.156Z,17.03
2019-05-21T19:15:09.094Z,17.57
2019-05-21T19:17:37.538Z,17.37
2019-05-21T19:20:06.250Z,18.00
2019-05-21T19:22:35.116Z,18.57
2019-05-21T19:25:03.796Z,18.67
2019-05-21T19:27:32.012Z,19.20
2019-05-21T19:30:00.141Z,20.03
2019-05-21T19:32:28.768Z,18.67
2019-05-21T19:34:57.286Z,21.30
2019-05-21T19:37:25.779Z,21.87
2019-05-21T19:39:53.947Z,21.10
2019-05-21T19:42:22.401Z,22.47
2019-05-21T19:44:50.433Z,22.50
2019-05-21T19:47:18.780Z,20.53
2019-05-21T19:49:47.363Z,28.45
2019-05-21T19:52:16.937Z,26.30
2019-05-21T19:54:45.388Z,24.30
2019-05-21T19:57:24.324Z,23.07
2019-05-21T19:59:53.283Z,23.77
2019-05-21T20:02:22.602Z,25.07
2019-05-21T20:04:51.790Z,28.00
2019-05-21T20:07:21.098Z,29.47
2019-05-21T20:09:51.225Z,32.27
2019-05-21T20:12:20.422Z,32.87
2019-05-21T20:14:48.968Z,36.97
2019-05-21T20:17:18.379Z,35.67
2019-05-21T20:19:49.698Z,36.33
2019-05-21T20:22:18.846Z,36.53
2019-05-21T20:24:48.300Z,37.60
2019-05-21T20:27:18.305Z,38.27
2019-05-21T20:29:47.480Z,38.10
2019-05-21T20:32:16.756Z,40.03
2019-05-21T20:34:45.242Z,37.60
2019-05-21T20:37:18.698Z,41.07
2019-05-21T20:39:49.575Z,39.97
2019-05-21T20:42:20.987Z,41.53
2019-05-21T20:44:49.968Z,41.07
2019-05-21T20:47:19.963Z,43.33
2019-05-21T20:49:51.489Z,44.97
2019-05-21T20:52:47.023Z,45.47
2019-05-21T20:55:21.517Z,47.67
2019-05-21T20:58:06.177Z,48.67
2019-05-21T21:00:41.430Z,48.47
2019-05-21T21:03:12.045Z,48.97
2019-05-21T21:05:50.967Z,48.10
2019-05-21T21:08:38.259Z,49.87
2019-05-21T21:11:19.597Z,52.97
2019-05-21T21:13:48.649Z,85.47
2019-05-21T21:16:17.401Z,66.03
2019-05-21T21:18:45.903Z,62.83
2019-05-21T21:21:14.425Z,60.27
2019-05-21T21:23:43.126Z,60.97
2019-05-21T21:26:12.880Z,61.63
2019-05-21T21:28:41.487Z,62.03
2019-05-21T21:31:09.799Z,59.63
2019-05-21T21:33:38.387Z,62.63
2019-05-21T21:36:06.459Z,59.60
2019-05-21T21:38:38.296Z,59.03
2019-05-21T21:41:07.169Z,59.80
2019-05-21T21:43:35.364Z,61.03
2019-05-21T21:46:03.667Z,64.37
2019-05-21T21:48:31.856Z,62.90
2019-05-21T21:51:01.893Z,63.43
2019-05-21T21:53:30.558Z,69.43
2019-05-21T21:55:58.681Z,92.25
2019-05-21T21:58:26.701Z,73.80
2019-05-21T22:01:26.087Z,85.37
2019-05-21T22:03:58.272Z,77.63
2019-05-21T22:06:29.333Z,83.47
2019-05-21T22:08:58.454Z,73.37
2019-05-21T22:11:26.736Z,67.97
2019-05-21T22:13:55.696Z,70.40
2019-05-21T22:16:24.259Z,72.20
2019-05-21T22:18:52.640Z,96.00
2019-05-21T22:21:20.995Z,132.93
2019-05-21T22:23:50.760Z,109.03
2019-05-21T22:26:19.098Z,90.50
2019-05-21T22:28:47.432Z,81.43
2019-05-21T22:31:15.603Z,73.90
2019-05-21T22:33:43.955Z,73.17
2019-05-21T22:36:12.414Z,72.20
2019-05-21T22:38:41.176Z,70.63
2019-05-21T22:41:10.215Z,68.57
2019-05-21T22:43:39.596Z,66.63
2019-05-21T22:46:07.769Z,69.20
2019-05-21T22:48:36.090Z,64.80
2019-05-21T22:51:04.416Z,67.53
2019-05-21T22:53:32.643Z,64.63
2019-05-21T22:56:00.890Z,75.13
2019-05-21T22:58:29.067Z,71.70
2019-05-21T23:00:57.918Z,71.90
2019-05-21T23:03:28.532Z,72.23
2019-05-21T23:05:56.735Z,71.00
2019-05-21T23:08:25.954Z,67.20
2019-05-21T23:10:54.277Z,65.63
2019-05-21T23:13:22.486Z,67.77
2019-05-21T23:15:52.222Z,64.53
2019-05-21T23:18:20.712Z,68.33
2019-05-21T23:20:49.449Z,74.87
2019-05-21T23:23:18.836Z,98.52
2019-05-21T23:25:46.931Z,82.30
2019-05-21T23:28:15.719Z,78.27
2019-05-21T23:30:43.816Z,88.60
2019-05-21T23:33:13.917Z,87.63
2019-05-21T23:35:42.562Z,88.80
2019-05-21T23:38:10.960Z,78.53
2019-05-21T23:40:39.379Z,79.27
2019-05-21T23:43:09.504Z,84.57
2019-05-21T23:45:37.780Z,89.57
2019-05-21T23:48:08.252Z,84.97
2019-05-21T23:50:37.274Z,87.53
2019-05-21T23:53:06.932Z,84.53
2019-05-21T23:55:35.342Z,90.70
2019-05-21T23:58:03.870Z,85.57
